Stover, MO

5:06 AM CDT on July 12, 2014 (GMT -0500)
cole camp Lincoln (KMOCOLEC2) Elev 905 ft | 38.40 °N, 93.20 °W | Change Station

Current weather conditions updated 4 minutes ago

Mostly Cloudy
Mostly Cloudy
76.0 °F
Feels Like 77 °F
N
0.0
Wind Variable Wind from SW
Gusts 0.0 mph

Today is forecast to be Warmer than yesterday.

Today
High -- | Low -- °F
--% Chance of Precip.
Yesterday
High -- | Low -- °F
Precip. -- in
5:58 AM 8:36 PM
Full, 100% visible
Pressure 30.06 in
Visibility 10.0 miles
Clouds Mostly Cloudy 11000 ft
Heat Index 77 °F
Dew Point 71 °F
Humidity 85%
Rainfall 0.00 in
Snow Depth Not available.
UV 0 out of 12
Pollen 3.70 out of 12
Air Quality Not available.
Flu Activity Sporadic
METAR KDMO 120953Z AUTO 21008KT 10SM BKN110 26/22 A3009 RMK AO2 SLP177 T02560217

More Conditions Fewer Conditions

Pressure 30.06 in
Visibility 10.0 miles
Clouds Mostly Cloudy 11000 ft
Heat Index 77 °F
Dew Point 71 °F
Humidity 85%
Rainfall 0.00 in
Snow Depth Not available.
UV 0 out of 12
Pollen 3.70 out of 12
Air Quality Not available.
Flu Activity Sporadic
METAR KDMO 120953Z AUTO 21008KT 10SM BKN110 26/22 A3009 RMK AO2 SLP177 T02560217

More Conditions Fewer Conditions

10-Day Weather Forecast

Almanac

Astronomy

Jul. 12, 2014 Rise Set
Actual Time 5:58 AM CDT 8:36 PM CDT
Civil Twilight 5:27 AM CDT 9:07 PM CDT
Nautical Twilight 4:48 AM CDT 9:46 PM CDT
Astronomical Twilight 4:04 AM CDT 10:29 PM CDT
Moon 8:40 PM CDT 6:16 AM CDT
Length of Visible Light 15h 40m
Length of Day
14h 38m
Tomorrow will be 1m 9s shorter.
Full, 100% of the Moon is Illuminated
Today
Full
Jul 12
Full
Jul 18
Last Quarter
Jul 26
New
Aug 3
First Quarter

Today's Extremes

State Highs State Lows

Community

WunderPhotos

Upload Photos

1,732,746 photos uploaded!

WunderBlogs® & News

Nearby

Snow Depth

Station Depth Elevation
No new snow has been reported.

Earthquake Activity

City Distance Mag. Time & Date
No recent earthquake activity has been reported nearby.
Minimum magnitude displayed is 2.5.

Coastal Water Temperatures

Place Temperature
No Stations Reporting

Nearby Weather Stations

Station Location Temp. Heat Index Dew Point Humidity Wind Precip. Elev Updated Type
cole camp Lincoln, Cole Camp, MO 76.0 °F 77 °F 71 °F 85% SW  at  0.0 mph 0.00 in / hr 905 ft 5:01 AM CDT Normal
MesoWest OTRVLE , Syracuse, MO 75 °F 73 °F - - North  at  - 0.00 in / hr 849 ft 3:20 AM CDT MADIS
MesoWest CLARKS , Clarksburg, MO 75 °F 73 °F - - North  at  - 0.00 in / hr 910 ft 3:00 AM CDT MADIS
Eldon, MO 76.1 °F 76 °F 74 °F 94% North  at  0.7 mph 0.00 in / hr 918 ft 5:06 AM CDT Rapid Fire
MesoWest SEDLIA , Sedalia, MO 93 °F 89 °F - - North  at  - 0.00 in / hr 823 ft 3:50 AM CDT MADIS
Sedalia, MO 76.2 °F 77 °F 71 °F 85% SSW  at  6.0 mph 0.00 in / hr 837 ft 5:06 AM CDT Rapid Fire
Lake of the Ozarks, Sunrise Beach, MO 78.8 °F 83 °F 78 °F 98% ESE  at  0.0 mph - / hr 668 ft 5:53 AM EDT Normal

Show More Stations Show Fewer Stations